sensor_id;sensor_type;location;lat;lon;timestamp;temperature;humidity
25536;DHT22;13431;51.352;6.412;2023-02-23T00:01:59;9.10;99.90
25536;DHT22;13431;51.352;6.412;2023-02-23T00:04:33;9.10;99.90
25536;DHT22;13431;51.352;6.412;2023-02-23T00:07:01;9.10;99.90
25536;DHT22;13431;51.352;6.412;2023-02-23T00:09:28;9.10;99.90
25536;DHT22;13431;51.352;6.412;2023-02-23T00:12:04;9.10;99.90
25536;DHT22;13431;51.352;6.412;2023-02-23T00:14:36;9.10;99.90
25536;DHT22;13431;51.352;6.412;2023-02-23T00:17:05;9.10;99.90
25536;DHT22;13431;51.352;6.412;2023-02-23T00:19:40;9.00;99.90
25536;DHT22;13431;51.352;6.412;2023-02-23T00:22:10;9.10;99.90
25536;DHT22;13431;51.352;6.412;2023-02-23T00:24:38;9.10;99.90
25536;DHT22;13431;51.352;6.412;2023-02-23T00:27:06;9.10;99.90
25536;DHT22;13431;51.352;6.412;2023-02-23T00:29:34;9.10;99.90
25536;DHT22;13431;51.352;6.412;2023-02-23T00:32:05;9.10;99.90
25536;DHT22;13431;51.352;6.412;2023-02-23T00:34:34;9.10;99.90
25536;DHT22;13431;51.352;6.412;2023-02-23T00:37:03;9.10;99.90
25536;DHT22;13431;51.352;6.412;2023-02-23T00:39:30;9.10;99.90
25536;DHT22;13431;51.352;6.412;2023-02-23T00:41:59;9.10;99.90
25536;DHT22;13431;51.352;6.412;2023-02-23T00:44:29;9.10;99.90
25536;DHT22;13431;51.352;6.412;2023-02-23T00:46:58;9.10;99.90
25536;DHT22;13431;51.352;6.412;2023-02-23T00:49:26;9.10;99.90
25536;DHT22;13431;51.352;6.412;2023-02-23T00:51:54;9.10;99.90
25536;DHT22;13431;51.352;6.412;2023-02-23T00:54:21;9.10;99.90
25536;DHT22;13431;51.352;6.412;2023-02-23T00:56:49;9.10;99.90
25536;DHT22;13431;51.352;6.412;2023-02-23T00:59:17;9.00;99.90
25536;DHT22;13431;51.352;6.412;2023-02-23T01:01:45;9.00;99.90
25536;DHT22;13431;51.352;6.412;2023-02-23T01:04:13;9.00;99.90
25536;DHT22;13431;51.352;6.412;2023-02-23T01:06:40;8.90;99.90
25536;DHT22;13431;51.352;6.412;2023-02-23T01:09:14;8.90;99.90
25536;DHT22;13431;51.352;6.412;2023-02-23T01:11:42;8.90;99.90
25536;DHT22;13431;51.352;6.412;2023-02-23T01:14:14;8.90;99.90
25536;DHT22;13431;51.352;6.412;2023-02-23T01:16:41;8.80;99.90
25536;DHT22;13431;51.352;6.412;2023-02-23T01:19:09;8.80;99.90
25536;DHT22;13431;51.352;6.412;2023-02-23T01:21:39;8.80;99.90
25536;DHT22;13431;51.352;6.412;2023-02-23T01:24:08;8.80;99.90
25536;DHT22;13431;51.352;6.412;2023-02-23T01:26:37;8.80;99.90
25536;DHT22;13431;51.352;6.412;2023-02-23T01:29:16;8.80;99.90
25536;DHT22;13431;51.352;6.412;2023-02-23T01:31:46;8.80;99.90
25536;DHT22;13431;51.352;6.412;2023-02-23T01:34:18;8.80;99.90
25536;DHT22;13431;51.352;6.412;2023-02-23T01:36:46;8.80;99.90
25536;DHT22;13431;51.352;6.412;2023-02-23T01:39:17;8.80;99.90
25536;DHT22;13431;51.352;6.412;2023-02-23T01:41:44;8.70;99.90
25536;DHT22;13431;51.352;6.412;2023-02-23T01:46:43;8.70;99.90
25536;DHT22;13431;51.352;6.412;2023-02-23T01:49:27;8.70;99.90
25536;DHT22;13431;51.352;6.412;2023-02-23T01:52:07;8.70;99.90
25536;DHT22;13431;51.352;6.412;2023-02-23T01:54:43;8.70;99.90
25536;DHT22;13431;51.352;6.412;2023-02-23T01:57:18;8.70;99.90
25536;DHT22;13431;51.352;6.412;2023-02-23T01:59:49;8.60;99.90
25536;DHT22;13431;51.352;6.412;2023-02-23T02:02:19;8.60;99.90
25536;DHT22;13431;51.352;6.412;2023-02-23T02:04:47;8.60;99.90
25536;DHT22;13431;51.352;6.412;2023-02-23T02:07:23;8.70;99.90
25536;DHT22;13431;51.352;6.412;2023-02-23T02:09:55;8.70;99.90
25536;DHT22;13431;51.352;6.412;2023-02-23T02:12:39;8.70;99.90
25536;DHT22;13431;51.352;6.412;2023-02-23T02:15:10;8.70;99.90
25536;DHT22;13431;51.352;6.412;2023-02-23T02:23:30;8.70;99.90
25536;DHT22;13431;51.352;6.412;2023-02-23T02:26:12;8.70;99.90
25536;DHT22;13431;51.352;6.412;2023-02-23T02:29:13;8.70;99.90
25536;DHT22;13431;51.352;6.412;2023-02-23T02:38:03;8.70;99.90
25536;DHT22;13431;51.352;6.412;2023-02-23T02:43:09;8.80;99.90
25536;DHT22;13431;51.352;6.412;2023-02-23T02:45:44;8.80;99.90
25536;DHT22;13431;51.352;6.412;2023-02-23T02:54:27;8.80;99.90
25536;DHT22;13431;51.352;6.412;2023-02-23T02:56:59;8.80;99.90
25536;DHT22;13431;51.352;6.412;2023-02-23T02:59:28;8.80;99.90
25536;DHT22;13431;51.352;6.412;2023-02-23T03:02:20;8.80;99.90
25536;DHT22;13431;51.352;6.412;2023-02-23T03:05:23;8.80;99.90
25536;DHT22;13431;51.352;6.412;2023-02-23T03:08:22;8.70;99.90
25536;DHT22;13431;51.352;6.412;2023-02-23T03:11:12;8.70;99.90
25536;DHT22;13431;51.352;6.412;2023-02-23T03:14:17;8.70;99.90
25536;DHT22;13431;51.352;6.412;2023-02-23T03:17:32;8.80;99.90
25536;DHT22;13431;51.352;6.412;2023-02-23T03:20:35;8.80;99.90
25536;DHT22;13431;51.352;6.412;2023-02-23T03:26:39;8.80;99.90
25536;DHT22;13431;51.352;6.412;2023-02-23T03:29:40;8.80;99.90
25536;DHT22;13431;51.352;6.412;2023-02-23T03:32:31;8.80;99.90
25536;DHT22;13431;51.352;6.412;2023-02-23T03:35:24;8.80;99.90
25536;DHT22;13431;51.352;6.412;2023-02-23T03:38:37;8.80;99.90
25536;DHT22;13431;51.352;6.412;2023-02-23T03:41:27;8.80;99.90
25536;DHT22;13431;51.352;6.412;2023-02-23T03:44:18;8.80;99.90
25536;DHT22;13431;51.352;6.412;2023-02-23T03:47:06;8.80;99.90
25536;DHT22;13431;51.352;6.412;2023-02-23T03:49:55;8.80;99.90
25536;DHT22;13431;51.352;6.412;2023-02-23T03:52:46;8.90;99.90
25536;DHT22;13431;51.352;6.412;2023-02-23T03:55:35;8.80;99.90
25536;DHT22;13431;51.352;6.412;2023-02-23T03:58:28;8.90;99.90
25536;DHT22;13431;51.352;6.412;2023-02-23T04:01:17;8.90;99.90
25536;DHT22;13431;51.352;6.412;2023-02-23T04:04:06;8.90;99.90
25536;DHT22;13431;51.352;6.412;2023-02-23T04:06:55;8.90;99.90
25536;DHT22;13431;51.352;6.412;2023-02-23T04:09:42;8.90;99.90
25536;DHT22;13431;51.352;6.412;2023-02-23T04:12:45;8.90;99.90
25536;DHT22;13431;51.352;6.412;2023-02-23T04:15:39;8.90;99.90
25536;DHT22;13431;51.352;6.412;2023-02-23T04:18:12;8.80;99.90
25536;DHT22;13431;51.352;6.412;2023-02-23T04:20:40;8.80;99.90
25536;DHT22;13431;51.352;6.412;2023-02-23T04:23:07;8.70;99.90
25536;DHT22;13431;51.352;6.412;2023-02-23T04:25:35;8.70;99.90
25536;DHT22;13431;51.352;6.412;2023-02-23T04:28:05;8.70;99.90
25536;DHT22;13431;51.352;6.412;2023-02-23T04:30:33;8.70;99.90
25536;DHT22;13431;51.352;6.412;2023-02-23T04:33:00;8.70;99.90
25536;DHT22;13431;51.352;6.412;2023-02-23T04:35:28;8.70;99.90
25536;DHT22;13431;51.352;6.412;2023-02-23T04:37:57;8.80;99.90
25536;DHT22;13431;51.352;6.412;2023-02-23T04:40:26;8.80;99.90
25536;DHT22;13431;51.352;6.412;2023-02-23T04:42:53;8.80;99.90
25536;DHT22;13431;51.352;6.412;2023-02-23T04:45:22;8.80;99.90
25536;DHT22;13431;51.352;6.412;2023-02-23T04:47:50;8.80;99.90
25536;DHT22;13431;51.352;6.412;2023-02-23T04:50:18;8.80;99.90
25536;DHT22;13431;51.352;6.412;2023-02-23T04:52:46;8.80;99.90
25536;DHT22;13431;51.352;6.412;2023-02-23T04:55:19;8.80;99.90
25536;DHT22;13431;51.352;6.412;2023-02-23T04:57:47;8.80;99.90
25536;DHT22;13431;51.352;6.412;2023-02-23T05:00:16;8.80;99.90
25536;DHT22;13431;51.352;6.412;2023-02-23T05:02:43;8.80;99.90
25536;DHT22;13431;51.352;6.412;2023-02-23T05:05:12;8.80;99.90
25536;DHT22;13431;51.352;6.412;2023-02-23T05:07:39;8.70;99.90
25536;DHT22;13431;51.352;6.412;2023-02-23T05:10:07;8.80;99.90
25536;DHT22;13431;51.352;6.412;2023-02-23T05:12:34;8.80;99.90
25536;DHT22;13431;51.352;6.412;2023-02-23T05:15:02;8.80;99.90
25536;DHT22;13431;51.352;6.412;2023-02-23T05:17:30;8.80;99.90
25536;DHT22;13431;51.352;6.412;2023-02-23T05:19:57;8.80;99.90
25536;DHT22;13431;51.352;6.412;2023-02-23T05:22:24;8.80;99.90
25536;DHT22;13431;51.352;6.412;2023-02-23T05:24:54;8.80;99.90
25536;DHT22;13431;51.352;6.412;2023-02-23T05:27:23;8.80;99.90
25536;DHT22;13431;51.352;6.412;2023-02-23T05:29:51;8.80;99.90
25536;DHT22;13431;51.352;6.412;2023-02-23T05:32:18;8.80;99.90
25536;DHT22;13431;51.352;6.412;2023-02-23T05:34:45;8.80;99.90
25536;DHT22;13431;51.352;6.412;2023-02-23T05:37:12;8.80;99.90
25536;DHT22;13431;51.352;6.412;2023-02-23T05:39:40;8.80;99.90
25536;DHT22;13431;51.352;6.412;2023-02-23T05:42:07;8.80;99.90
25536;DHT22;13431;51.352;6.412;2023-02-23T05:44:34;8.80;99.90
25536;DHT22;13431;51.352;6.412;2023-02-23T05:47:02;8.70;99.90
25536;DHT22;13431;51.352;6.412;2023-02-23T05:49:30;8.70;99.90
25536;DHT22;13431;51.352;6.412;2023-02-23T05:51:57;8.70;99.90
25536;DHT22;13431;51.352;6.412;2023-02-23T05:54:24;8.70;99.90
25536;DHT22;13431;51.352;6.412;2023-02-23T05:56:52;8.70;99.90
25536;DHT22;13431;51.352;6.412;2023-02-23T05:59:19;8.60;99.90
25536;DHT22;13431;51.352;6.412;2023-02-23T06:01:47;8.60;99.90
25536;DHT22;13431;51.352;6.412;2023-02-23T06:04:14;8.50;99.90
25536;DHT22;13431;51.352;6.412;2023-02-23T06:06:43;8.40;99.90
25536;DHT22;13431;51.352;6.412;2023-02-23T06:09:11;8.40;99.90
25536;DHT22;13431;51.352;6.412;2023-02-23T06:11:38;8.30;99.90
25536;DHT22;13431;51.352;6.412;2023-02-23T06:14:06;8.30;99.90
25536;DHT22;13431;51.352;6.412;2023-02-23T06:16:33;8.30;99.90
25536;DHT22;13431;51.352;6.412;2023-02-23T06:19:00;8.20;99.90
25536;DHT22;13431;51.352;6.412;2023-02-23T06:21:28;8.20;99.90
25536;DHT22;13431;51.352;6.412;2023-02-23T06:23:55;8.20;99.90
25536;DHT22;13431;51.352;6.412;2023-02-23T06:26:26;8.20;99.90
25536;DHT22;13431;51.352;6.412;2023-02-23T06:28:54;8.20;99.90
25536;DHT22;13431;51.352;6.412;2023-02-23T06:31:21;8.20;99.90
25536;DHT22;13431;51.352;6.412;2023-02-23T06:33:49;8.20;99.90
25536;DHT22;13431;51.352;6.412;2023-02-23T06:36:17;8.20;99.90
25536;DHT22;13431;51.352;6.412;2023-02-23T06:38:45;8.20;99.90
25536;DHT22;13431;51.352;6.412;2023-02-23T06:41:12;8.20;99.90
25536;DHT22;13431;51.352;6.412;2023-02-23T06:43:39;8.20;99.90
25536;DHT22;13431;51.352;6.412;2023-02-23T06:46:07;8.10;99.90
25536;DHT22;13431;51.352;6.412;2023-02-23T06:48:34;8.10;99.90
25536;DHT22;13431;51.352;6.412;2023-02-23T06:51:02;8.10;99.90
25536;DHT22;13431;51.352;6.412;2023-02-23T06:53:29;8.10;99.90
25536;DHT22;13431;51.352;6.412;2023-02-23T06:55:57;8.10;99.90
25536;DHT22;13431;51.352;6.412;2023-02-23T06:58:24;8.10;99.90
25536;DHT22;13431;51.352;6.412;2023-02-23T07:00:54;8.10;99.90
25536;DHT22;13431;51.352;6.412;2023-02-23T07:03:23;8.00;99.90
25536;DHT22;13431;51.352;6.412;2023-02-23T07:05:51;8.10;99.90
25536;DHT22;13431;51.352;6.412;2023-02-23T07:08:19;8.10;99.90
25536;DHT22;13431;51.352;6.412;2023-02-23T07:10:47;8.10;99.90
25536;DHT22;13431;51.352;6.412;2023-02-23T07:13:14;8.10;99.90
25536;DHT22;13431;51.352;6.412;2023-02-23T07:15:43;8.10;99.90
25536;DHT22;13431;51.352;6.412;2023-02-23T07:18:10;8.10;99.90
25536;DHT22;13431;51.352;6.412;2023-02-23T07:20:37;8.10;99.90
25536;DHT22;13431;51.352;6.412;2023-02-23T07:23:05;8.10;99.90
25536;DHT22;13431;51.352;6.412;2023-02-23T07:25:32;8.10;99.90
25536;DHT22;13431;51.352;6.412;2023-02-23T07:27:59;8.10;99.90
25536;DHT22;13431;51.352;6.412;2023-02-23T07:30:27;8.10;99.90
25536;DHT22;13431;51.352;6.412;2023-02-23T07:32:54;8.10;99.90
25536;DHT22;13431;51.352;6.412;2023-02-23T07:35:21;8.10;99.90
25536;DHT22;13431;51.352;6.412;2023-02-23T07:37:49;8.10;99.90
25536;DHT22;13431;51.352;6.412;2023-02-23T07:40:18;8.10;99.90
25536;DHT22;13431;51.352;6.412;2023-02-23T07:42:45;8.20;99.90
25536;DHT22;13431;51.352;6.412;2023-02-23T07:45:13;8.20;99.90
25536;DHT22;13431;51.352;6.412;2023-02-23T07:47:41;8.30;99.90
25536;DHT22;13431;51.352;6.412;2023-02-23T07:50:08;8.30;99.90
25536;DHT22;13431;51.352;6.412;2023-02-23T07:52:37;8.40;99.90
25536;DHT22;13431;51.352;6.412;2023-02-23T07:55:06;8.40;99.90
25536;DHT22;13431;51.352;6.412;2023-02-23T07:57:37;8.50;99.90
25536;DHT22;13431;51.352;6.412;2023-02-23T08:00:06;8.60;99.90
25536;DHT22;13431;51.352;6.412;2023-02-23T08:02:39;8.60;99.90
25536;DHT22;13431;51.352;6.412;2023-02-23T08:05:06;8.60;99.90
25536;DHT22;13431;51.352;6.412;2023-02-23T08:07:34;8.60;99.90
25536;DHT22;13431;51.352;6.412;2023-02-23T08:10:01;8.60;99.90
25536;DHT22;13431;51.352;6.412;2023-02-23T08:12:28;8.70;99.90
25536;DHT22;13431;51.352;6.412;2023-02-23T08:14:57;8.60;99.90
25536;DHT22;13431;51.352;6.412;2023-02-23T08:17:25;8.70;99.90
25536;DHT22;13431;51.352;6.412;2023-02-23T08:19:52;8.70;99.90
25536;DHT22;13431;51.352;6.412;2023-02-23T08:22:19;8.70;99.90
25536;DHT22;13431;51.352;6.412;2023-02-23T08:24:47;8.60;99.90
25536;DHT22;13431;51.352;6.412;2023-02-23T08:27:15;8.50;99.90
25536;DHT22;13431;51.352;6.412;2023-02-23T08:29:42;8.50;99.90
25536;DHT22;13431;51.352;6.412;2023-02-23T08:32:09;8.50;99.90
25536;DHT22;13431;51.352;6.412;2023-02-23T08:34:41;8.50;99.90
25536;DHT22;13431;51.352;6.412;2023-02-23T08:37:10;8.60;99.90
25536;DHT22;13431;51.352;6.412;2023-02-23T08:39:37;8.60;99.90
25536;DHT22;13431;51.352;6.412;2023-02-23T08:42:05;8.70;99.90
25536;DHT22;13431;51.352;6.412;2023-02-23T08:44:32;8.80;99.90
25536;DHT22;13431;51.352;6.412;2023-02-23T08:47:00;8.80;99.90
25536;DHT22;13431;51.352;6.412;2023-02-23T08:49:29;8.80;99.90
25536;DHT22;13431;51.352;6.412;2023-02-23T08:51:58;8.80;99.90
25536;DHT22;13431;51.352;6.412;2023-02-23T08:54:25;8.80;99.90
25536;DHT22;13431;51.352;6.412;2023-02-23T08:56:55;8.80;99.90
25536;DHT22;13431;51.352;6.412;2023-02-23T08:59:24;8.90;99.90
25536;DHT22;13431;51.352;6.412;2023-02-23T09:01:51;8.90;99.90
25536;DHT22;13431;51.352;6.412;2023-02-23T09:04:19;8.90;99.90
25536;DHT22;13431;51.352;6.412;2023-02-23T09:06:46;9.00;99.90
25536;DHT22;13431;51.352;6.412;2023-02-23T09:09:16;9.00;99.90
25536;DHT22;13431;51.352;6.412;2023-02-23T09:11:43;9.10;99.90
25536;DHT22;13431;51.352;6.412;2023-02-23T09:14:11;9.10;99.90
25536;DHT22;13431;51.352;6.412;2023-02-23T09:16:38;9.10;99.90
25536;DHT22;13431;51.352;6.412;2023-02-23T09:19:06;9.20;99.90
25536;DHT22;13431;51.352;6.412;2023-02-23T09:21:33;9.30;99.90
25536;DHT22;13431;51.352;6.412;2023-02-23T09:24:01;9.30;99.90
25536;DHT22;13431;51.352;6.412;2023-02-23T09:26:28;9.40;99.90
25536;DHT22;13431;51.352;6.412;2023-02-23T09:28:58;9.50;99.90
25536;DHT22;13431;51.352;6.412;2023-02-23T09:31:26;9.60;99.90
25536;DHT22;13431;51.352;6.412;2023-02-23T09:33:54;9.70;99.90
25536;DHT22;13431;51.352;6.412;2023-02-23T09:36:24;9.80;99.90
25536;DHT22;13431;51.352;6.412;2023-02-23T09:38:53;9.90;99.90
25536;DHT22;13431;51.352;6.412;2023-02-23T09:47:19;9.60;99.90
25536;DHT22;13431;51.352;6.412;2023-02-23T09:49:49;9.70;99.90
25536;DHT22;13431;51.352;6.412;2023-02-23T09:52:34;9.70;99.90
25536;DHT22;13431;51.352;6.412;2023-02-23T09:55:03;9.60;99.90
25536;DHT22;13431;51.352;6.412;2023-02-23T09:57:37;9.60;99.90
25536;DHT22;13431;51.352;6.412;2023-02-23T10:00:33;9.60;99.90
25536;DHT22;13431;51.352;6.412;2023-02-23T10:03:30;9.90;99.90
25536;DHT22;13431;51.352;6.412;2023-02-23T10:06:05;10.10;99.90
25536;DHT22;13431;51.352;6.412;2023-02-23T10:11:57;10.10;99.90
25536;DHT22;13431;51.352;6.412;2023-02-23T10:20:47;9.80;99.90
25536;DHT22;13431;51.352;6.412;2023-02-23T10:23:17;9.70;99.90
25536;DHT22;13431;51.352;6.412;2023-02-23T10:25:49;9.60;99.90
25536;DHT22;13431;51.352;6.412;2023-02-23T10:28:20;9.50;99.90
25536;DHT22;13431;51.352;6.412;2023-02-23T10:30:49;9.30;99.90
25536;DHT22;13431;51.352;6.412;2023-02-23T10:33:31;9.20;99.90
25536;DHT22;13431;51.352;6.412;2023-02-23T10:36:16;9.10;99.90
25536;DHT22;13431;51.352;6.412;2023-02-23T10:38:46;9.00;99.90
25536;DHT22;13431;51.352;6.412;2023-02-23T10:41:13;8.90;99.90
25536;DHT22;13431;51.352;6.412;2023-02-23T10:43:41;8.80;99.90
25536;DHT22;13431;51.352;6.412;2023-02-23T10:46:18;8.80;99.90
25536;DHT22;13431;51.352;6.412;2023-02-23T10:48:48;8.80;99.90
25536;DHT22;13431;51.352;6.412;2023-02-23T10:51:20;8.70;99.90
25536;DHT22;13431;51.352;6.412;2023-02-23T10:53:48;8.80;99.90
25536;DHT22;13431;51.352;6.412;2023-02-23T10:56:20;8.90;99.90
25536;DHT22;13431;51.352;6.412;2023-02-23T10:58:56;9.20;99.90
25536;DHT22;13431;51.352;6.412;2023-02-23T11:01:39;9.50;99.90
25536;DHT22;13431;51.352;6.412;2023-02-23T11:04:29;9.80;99.90
25536;DHT22;13431;51.352;6.412;2023-02-23T11:07:22;9.90;99.90
25536;DHT22;13431;51.352;6.412;2023-02-23T11:09:50;10.20;99.90
25536;DHT22;13431;51.352;6.412;2023-02-23T11:12:24;10.20;99.90
25536;DHT22;13431;51.352;6.412;2023-02-23T11:14:55;10.20;99.90
25536;DHT22;13431;51.352;6.412;2023-02-23T11:17:32;10.20;99.90
25536;DHT22;13431;51.352;6.412;2023-02-23T11:20:20;10.20;99.90
25536;DHT22;13431;51.352;6.412;2023-02-23T11:22:49;10.00;99.90
25536;DHT22;13431;51.352;6.412;2023-02-23T11:25:28;10.00;99.90
25536;DHT22;13431;51.352;6.412;2023-02-23T11:27:57;9.90;99.90
25536;DHT22;13431;51.352;6.412;2023-02-23T11:30:32;9.90;99.90
25536;DHT22;13431;51.352;6.412;2023-02-23T11:33:04;9.80;99.90
25536;DHT22;13431;51.352;6.412;2023-02-23T11:35:37;9.60;99.90
25536;DHT22;13431;51.352;6.412;2023-02-23T11:38:34;9.40;99.90
25536;DHT22;13431;51.352;6.412;2023-02-23T11:41:04;9.30;99.90
25536;DHT22;13431;51.352;6.412;2023-02-23T11:43:33;9.30;99.90
25536;DHT22;13431;51.352;6.412;2023-02-23T11:46:02;9.30;99.90
25536;DHT22;13431;51.352;6.412;2023-02-23T11:48:36;9.30;99.90
25536;DHT22;13431;51.352;6.412;2023-02-23T11:51:09;9.40;99.90
25536;DHT22;13431;51.352;6.412;2023-02-23T11:53:39;9.50;99.90
25536;DHT22;13431;51.352;6.412;2023-02-23T11:56:10;9.50;99.90
25536;DHT22;13431;51.352;6.412;2023-02-23T11:58:42;9.50;99.90
25536;DHT22;13431;51.352;6.412;2023-02-23T12:01:12;9.50;99.90
25536;DHT22;13431;51.352;6.412;2023-02-23T12:03:56;9.50;99.90
25536;DHT22;13431;51.352;6.412;2023-02-23T12:06:33;9.60;99.90
25536;DHT22;13431;51.352;6.412;2023-02-23T12:12:03;9.90;99.90
25536;DHT22;13431;51.352;6.412;2023-02-23T12:17:11;9.90;99.90
25536;DHT22;13431;51.352;6.412;2023-02-23T12:19:47;10.00;99.90
25536;DHT22;13431;51.352;6.412;2023-02-23T12:22:34;10.10;99.90
25536;DHT22;13431;51.352;6.412;2023-02-23T12:25:15;10.30;99.90
25536;DHT22;13431;51.352;6.412;2023-02-23T12:27:50;10.20;99.90
25536;DHT22;13431;51.352;6.412;2023-02-23T12:33:37;10.40;99.90
25536;DHT22;13431;51.352;6.412;2023-02-23T12:41:41;10.50;99.90
25536;DHT22;13431;51.352;6.412;2023-02-23T12:47:34;10.60;99.90
25536;DHT22;13431;51.352;6.412;2023-02-23T12:52:58;10.10;99.90
25536;DHT22;13431;51.352;6.412;2023-02-23T12:55:35;10.10;99.90
25536;DHT22;13431;51.352;6.412;2023-02-23T12:59:06;10.10;99.90
25536;DHT22;13431;51.352;6.412;2023-02-23T13:02:17;10.10;99.90
25536;DHT22;13431;51.352;6.412;2023-02-23T13:13:29;10.50;99.90
25536;DHT22;13431;51.352;6.412;2023-02-23T13:18:48;10.50;99.90
25536;DHT22;13431;51.352;6.412;2023-02-23T13:21:39;10.30;99.90
25536;DHT22;13431;51.352;6.412;2023-02-23T13:24:18;10.30;99.90
25536;DHT22;13431;51.352;6.412;2023-02-23T13:29:48;10.50;99.90
25536;DHT22;13431;51.352;6.412;2023-02-23T13:32:19;10.40;99.90
25536;DHT22;13431;51.352;6.412;2023-02-23T13:34:57;10.50;99.90
25536;DHT22;13431;51.352;6.412;2023-02-23T13:37:40;10.50;99.90
25536;DHT22;13431;51.352;6.412;2023-02-23T13:40:30;10.40;99.90
25536;DHT22;13431;51.352;6.412;2023-02-23T13:43:23;10.20;99.90
25536;DHT22;13431;51.352;6.412;2023-02-23T13:49:01;10.00;99.90
25536;DHT22;13431;51.352;6.412;2023-02-23T13:54:21;9.80;99.90
25536;DHT22;13431;51.352;6.412;2023-02-23T13:56:56;9.90;99.90
25536;DHT22;13431;51.352;6.412;2023-02-23T13:59:28;9.80;99.90
25536;DHT22;13431;51.352;6.412;2023-02-23T14:01:59;9.80;99.90
25536;DHT22;13431;51.352;6.412;2023-02-23T14:04:34;9.70;99.90
25536;DHT22;13431;51.352;6.412;2023-02-23T14:09:49;9.60;99.90
25536;DHT22;13431;51.352;6.412;2023-02-23T14:12:40;9.60;99.90
25536;DHT22;13431;51.352;6.412;2023-02-23T14:20:54;9.60;99.90
25536;DHT22;13431;51.352;6.412;2023-02-23T14:27:02;9.50;99.90
25536;DHT22;13431;51.352;6.412;2023-02-23T14:29:22;9.60;99.90
25536;DHT22;13431;51.352;6.412;2023-02-23T14:32:18;9.50;99.90
25536;DHT22;13431;51.352;6.412;2023-02-23T14:34:51;9.50;99.90
25536;DHT22;13431;51.352;6.412;2023-02-23T14:37:38;9.60;99.90
25536;DHT22;13431;51.352;6.412;2023-02-23T14:42:39;9.60;99.90
25536;DHT22;13431;51.352;6.412;2023-02-23T14:45:23;9.60;99.90
25536;DHT22;13431;51.352;6.412;2023-02-23T14:48:20;9.60;99.90
25536;DHT22;13431;51.352;6.412;2023-02-23T14:50:44;9.60;99.90
25536;DHT22;13431;51.352;6.412;2023-02-23T14:53:20;9.60;99.90
25536;DHT22;13431;51.352;6.412;2023-02-23T14:55:48;9.60;99.90
25536;DHT22;13431;51.352;6.412;2023-02-23T14:58:29;9.50;99.90
25536;DHT22;13431;51.352;6.412;2023-02-23T15:00:59;9.50;99.90
25536;DHT22;13431;51.352;6.412;2023-02-23T15:03:27;9.50;99.90
25536;DHT22;13431;51.352;6.412;2023-02-23T15:06:04;9.60;99.90
25536;DHT22;13431;51.352;6.412;2023-02-23T15:08:37;9.60;99.90
25536;DHT22;13431;51.352;6.412;2023-02-23T15:11:10;9.60;99.90
25536;DHT22;13431;51.352;6.412;2023-02-23T15:13:46;9.50;99.90
25536;DHT22;13431;51.352;6.412;2023-02-23T15:16:36;9.50;99.90
25536;DHT22;13431;51.352;6.412;2023-02-23T15:19:04;9.40;99.90
25536;DHT22;13431;51.352;6.412;2023-02-23T15:21:31;9.40;99.90
25536;DHT22;13431;51.352;6.412;2023-02-23T15:24:12;9.40;99.90
25536;DHT22;13431;51.352;6.412;2023-02-23T15:26:42;9.40;99.90
25536;DHT22;13431;51.352;6.412;2023-02-23T15:31:41;9.30;99.90
25536;DHT22;13431;51.352;6.412;2023-02-23T15:34:22;9.30;99.90
25536;DHT22;13431;51.352;6.412;2023-02-23T15:36:57;9.30;99.90
25536;DHT22;13431;51.352;6.412;2023-02-23T15:39:41;9.30;99.90
25536;DHT22;13431;51.352;6.412;2023-02-23T15:42:14;9.30;99.90
25536;DHT22;13431;51.352;6.412;2023-02-23T15:44:43;9.30;99.90
25536;DHT22;13431;51.352;6.412;2023-02-23T15:47:22;9.30;99.90
25536;DHT22;13431;51.352;6.412;2023-02-23T15:50:26;9.20;99.90
25536;DHT22;13431;51.352;6.412;2023-02-23T15:53:11;9.20;99.90
25536;DHT22;13431;51.352;6.412;2023-02-23T15:55:42;9.20;99.90
25536;DHT22;13431;51.352;6.412;2023-02-23T15:58:23;9.20;99.90
25536;DHT22;13431;51.352;6.412;2023-02-23T16:01:11;9.10;99.90
25536;DHT22;13431;51.352;6.412;2023-02-23T16:03:45;9.00;99.90
25536;DHT22;13431;51.352;6.412;2023-02-23T16:06:37;9.00;99.90
25536;DHT22;13431;51.352;6.412;2023-02-23T16:09:25;9.00;99.90
25536;DHT22;13431;51.352;6.412;2023-02-23T16:11:55;8.90;99.90
25536;DHT22;13431;51.352;6.412;2023-02-23T16:14:33;8.90;99.90
25536;DHT22;13431;51.352;6.412;2023-02-23T16:17:01;8.90;99.90
25536;DHT22;13431;51.352;6.412;2023-02-23T16:19:37;8.90;99.90
25536;DHT22;13431;51.352;6.412;2023-02-23T16:22:17;8.80;99.90
25536;DHT22;13431;51.352;6.412;2023-02-23T16:24:53;8.80;99.90
25536;DHT22;13431;51.352;6.412;2023-02-23T16:27:23;8.80;99.90
25536;DHT22;13431;51.352;6.412;2023-02-23T16:29:57;8.80;99.90
25536;DHT22;13431;51.352;6.412;2023-02-23T16:32:37;8.80;99.90
25536;DHT22;13431;51.352;6.412;2023-02-23T16:35:17;8.70;99.90
25536;DHT22;13431;51.352;6.412;2023-02-23T16:38:19;8.70;99.90
25536;DHT22;13431;51.352;6.412;2023-02-23T16:40:48;8.70;99.90
25536;DHT22;13431;51.352;6.412;2023-02-23T16:43:16;8.70;99.90
25536;DHT22;13431;51.352;6.412;2023-02-23T16:45:43;8.70;99.90
25536;DHT22;13431;51.352;6.412;2023-02-23T16:48:13;8.70;99.90
25536;DHT22;13431;51.352;6.412;2023-02-23T16:50:41;8.70;99.90
25536;DHT22;13431;51.352;6.412;2023-02-23T16:53:10;8.70;99.90
25536;DHT22;13431;51.352;6.412;2023-02-23T16:55:41;8.60;99.90
25536;DHT22;13431;51.352;6.412;2023-02-23T16:58:16;8.60;99.90
25536;DHT22;13431;51.352;6.412;2023-02-23T17:00:44;8.60;99.90
25536;DHT22;13431;51.352;6.412;2023-02-23T17:03:32;8.60;99.90
25536;DHT22;13431;51.352;6.412;2023-02-23T17:06:04;8.60;99.90
25536;DHT22;13431;51.352;6.412;2023-02-23T17:08:33;8.50;99.90
25536;DHT22;13431;51.352;6.412;2023-02-23T17:11:02;8.60;99.90
25536;DHT22;13431;51.352;6.412;2023-02-23T17:13:31;8.50;99.90
25536;DHT22;13431;51.352;6.412;2023-02-23T17:16:04;8.50;99.90
25536;DHT22;13431;51.352;6.412;2023-02-23T17:18:35;8.50;99.90
25536;DHT22;13431;51.352;6.412;2023-02-23T17:21:08;8.50;99.90
25536;DHT22;13431;51.352;6.412;2023-02-23T17:23:38;8.50;99.90
25536;DHT22;13431;51.352;6.412;2023-02-23T17:26:14;8.50;99.90
25536;DHT22;13431;51.352;6.412;2023-02-23T17:28:43;8.50;99.90
25536;DHT22;13431;51.352;6.412;2023-02-23T17:31:12;8.50;99.90
25536;DHT22;13431;51.352;6.412;2023-02-23T17:33:41;8.50;99.90
25536;DHT22;13431;51.352;6.412;2023-02-23T17:36:14;8.50;99.90
25536;DHT22;13431;51.352;6.412;2023-02-23T17:38:41;8.50;99.90
25536;DHT22;13431;51.352;6.412;2023-02-23T17:41:15;8.40;99.90
25536;DHT22;13431;51.352;6.412;2023-02-23T17:43:43;8.30;99.90
25536;DHT22;13431;51.352;6.412;2023-02-23T17:46:12;8.20;99.90
25536;DHT22;13431;51.352;6.412;2023-02-23T17:48:39;8.20;99.90
25536;DHT22;13431;51.352;6.412;2023-02-23T17:51:10;8.20;99.90
25536;DHT22;13431;51.352;6.412;2023-02-23T17:53:39;8.10;99.90
25536;DHT22;13431;51.352;6.412;2023-02-23T17:56:07;8.10;99.90
25536;DHT22;13431;51.352;6.412;2023-02-23T17:58:35;8.10;99.90
25536;DHT22;13431;51.352;6.412;2023-02-23T18:01:04;8.00;99.90
25536;DHT22;13431;51.352;6.412;2023-02-23T18:03:34;8.00;99.90
25536;DHT22;13431;51.352;6.412;2023-02-23T18:06:04;8.00;99.90